createdAt,value
2023-02-08T00:02:19.445Z,99.90
2023-02-08T00:07:25.860Z,99.90
2023-02-08T00:12:31.240Z,99.90
2023-02-08T00:17:36.471Z,99.90
2023-02-08T00:22:41.815Z,99.90
2023-02-08T00:27:47.165Z,99.90
2023-02-08T00:32:52.471Z,99.90
2023-02-08T00:37:58.169Z,99.90
2023-02-08T00:43:03.499Z,99.90
2023-02-08T00:48:08.750Z,99.90
2023-02-08T00:53:13.950Z,99.90
2023-02-08T00:58:19.112Z,99.90
2023-02-08T01:03:24.957Z,99.90
2023-02-08T01:08:30.350Z,99.90
2023-02-08T01:13:37.270Z,99.90
2023-02-08T01:18:45.247Z,99.90
2023-02-08T01:23:51.423Z,99.90
2023-02-08T01:28:57.668Z,99.90
2023-02-08T01:34:03.417Z,99.90
2023-02-08T01:39:09.468Z,99.90
2023-02-08T01:44:20.928Z,99.90
2023-02-08T01:49:31.726Z,99.90
2023-02-08T01:54:43.325Z,99.90
2023-02-08T01:59:51.569Z,99.90
2023-02-08T02:04:57.360Z,99.90
2023-02-08T02:10:18.734Z,99.90
2023-02-08T02:15:23.920Z,99.90
2023-02-08T02:20:38.206Z,99.90
2023-02-08T02:25:55.630Z,99.90
2023-02-08T02:31:15.951Z,99.90
2023-02-08T02:36:24.164Z,99.90
2023-02-08T02:41:58.632Z,99.90
2023-02-08T02:47:10.301Z,99.90
2023-02-08T02:52:18.432Z,99.90
2023-02-08T02:57:29.358Z,99.90
2023-02-08T03:02:34.615Z,99.90
2023-02-08T03:08:14.282Z,99.90
2023-02-08T03:13:46.445Z,99.90
2023-02-08T03:18:57.590Z,99.90
2023-02-08T03:24:14.650Z,99.90
2023-02-08T03:29:43.876Z,99.90
2023-02-08T03:35:01.103Z,99.90
2023-02-08T03:40:20.948Z,99.90
2023-02-08T03:45:31.987Z,99.90
2023-02-08T03:50:40.559Z,99.90
2023-02-08T03:55:48.561Z,99.90
2023-02-08T04:00:59.736Z,99.90
2023-02-08T04:06:05.101Z,99.90
2023-02-08T04:11:10.297Z,99.90
2023-02-08T04:16:15.576Z,99.90
2023-02-08T04:21:20.896Z,99.90
2023-02-08T04:26:26.159Z,99.90
2023-02-08T04:31:31.433Z,99.90
2023-02-08T04:36:36.796Z,99.90
2023-02-08T04:41:42.283Z,99.90
2023-02-08T04:46:47.493Z,99.90
2023-02-08T04:51:53.035Z,99.90
2023-02-08T04:56:58.209Z,99.90
2023-02-08T05:02:03.530Z,99.90
2023-02-08T05:07:08.828Z,99.90
2023-02-08T05:12:14.212Z,99.90
2023-02-08T05:17:19.391Z,99.90
2023-02-08T05:22:26.074Z,99.90
2023-02-08T05:27:32.061Z,99.90
2023-02-08T05:32:37.899Z,99.90
2023-02-08T05:37:43.280Z,99.90
2023-02-08T05:42:48.415Z,99.90
2023-02-08T05:47:53.602Z,99.90
2023-02-08T05:52:58.997Z,99.90
2023-02-08T05:58:04.292Z,99.90
2023-02-08T06:03:09.479Z,99.90
2023-02-08T06:08:14.802Z,99.90
2023-02-08T06:13:20.717Z,99.90
2023-02-08T06:18:26.100Z,99.90
2023-02-08T06:23:31.633Z,99.90
2023-02-08T06:28:36.965Z,99.90
2023-02-08T06:33:42.182Z,99.90
2023-02-08T06:38:48.038Z,99.90
2023-02-08T06:43:56.967Z,99.90
2023-02-08T06:49:02.167Z,99.90
2023-02-08T06:54:07.818Z,99.90
2023-02-08T06:59:13.452Z,99.90
2023-02-08T07:04:18.714Z,99.90
2023-02-08T07:09:24.210Z,99.90
2023-02-08T07:14:29.430Z,99.90
2023-02-08T07:19:34.783Z,99.90
2023-02-08T07:24:41.382Z,99.90
2023-02-08T07:29:46.766Z,99.90
2023-02-08T07:34:52.037Z,99.90
2023-02-08T07:39:57.226Z,99.90
2023-02-08T07:45:04.406Z,99.90
2023-02-08T07:50:09.846Z,99.90
2023-02-08T07:55:20.757Z,99.90
2023-02-08T08:00:27.156Z,99.90
2023-02-08T08:05:32.641Z,97.90
2023-02-08T08:10:38.293Z,96.60
2023-02-08T08:15:43.929Z,97.70
2023-02-08T08:20:49.420Z,96.70
2023-02-08T08:25:54.580Z,95.80
2023-02-08T08:31:00.438Z,96.60
2023-02-08T08:36:05.816Z,95.60
2023-02-08T08:41:13.040Z,95.70
2023-02-08T08:46:18.396Z,95.70
2023-02-08T08:51:23.871Z,94.40
2023-02-08T08:56:29.488Z,92.70
2023-02-08T09:01:34.887Z,90.10
2023-02-08T09:06:40.154Z,89.10
2023-02-08T09:11:45.429Z,87.10
2023-02-08T09:16:50.752Z,86.20
2023-02-08T09:21:57.986Z,83.70
2023-02-08T09:27:03.199Z,83.50
2023-02-08T09:32:10.497Z,79.40
2023-02-08T09:37:17.472Z,79.50
2023-02-08T09:42:25.905Z,79.70
2023-02-08T09:47:36.495Z,79.80
2023-02-08T09:52:47.460Z,78.60
2023-02-08T09:57:55.475Z,79.20
2023-02-08T10:03:03.060Z,81.70
2023-02-08T10:08:12.149Z,79.80
2023-02-08T10:13:40.618Z,79.70
2023-02-08T10:18:45.148Z,77.30
2023-02-08T10:24:08.027Z,76.30
2023-02-08T10:29:16.369Z,79.50
2023-02-08T10:34:30.888Z,79.20
2023-02-08T10:39:37.905Z,78.70
2023-02-08T10:45:03.097Z,78.30
2023-02-08T10:50:23.482Z,80.60
2023-02-08T10:55:28.766Z,78.40
2023-02-08T11:00:37.132Z,78.70
2023-02-08T11:05:42.933Z,81.90
2023-02-08T11:10:59.992Z,83.80
2023-02-08T11:16:14.351Z,84.10
2023-02-08T11:21:29.720Z,83.90
2023-02-08T11:26:41.984Z,83.20
2023-02-08T11:32:08.372Z,81.20
2023-02-08T11:37:26.493Z,81.30
2023-02-08T11:42:34.785Z,81.50
2023-02-08T11:47:40.061Z,83.00
2023-02-08T11:52:46.942Z,81.90
2023-02-08T11:58:15.133Z,82.30
2023-02-08T12:03:23.382Z,82.10
2023-02-08T12:08:34.370Z,82.20
2023-02-08T12:13:45.434Z,83.80
2023-02-08T12:19:08.374Z,82.50
2023-02-08T12:24:16.676Z,84.80
2023-02-08T12:29:46.985Z,85.00
2023-02-08T12:34:52.502Z,84.50
2023-02-08T12:40:39.801Z,84.60
2023-02-08T12:45:56.855Z,85.80
2023-02-08T12:51:08.147Z,87.70
2023-02-08T12:56:17.793Z,87.20
2023-02-08T13:01:28.811Z,89.30
2023-02-08T13:06:43.238Z,88.10
2023-02-08T13:11:51.496Z,88.30
2023-02-08T13:16:59.705Z,88.60
2023-02-08T13:22:06.619Z,88.20
2023-02-08T13:27:17.874Z,89.70
2023-02-08T13:32:32.210Z,89.90
2023-02-08T13:37:37.737Z,89.50
2023-02-08T13:42:52.328Z,90.00
2023-02-08T13:48:00.624Z,90.40
2023-02-08T13:53:06.885Z,91.10
2023-02-08T13:58:28.002Z,91.30
2023-02-08T14:03:39.138Z,91.40
2023-02-08T14:08:58.926Z,92.70
2023-02-08T14:14:25.030Z,92.80
2023-02-08T14:19:41.050Z,93.60
2023-02-08T14:24:50.001Z,95.10
2023-02-08T14:30:03.935Z,95.60
2023-02-08T14:35:21.171Z,96.60
2023-02-08T14:40:55.589Z,96.70
2023-02-08T14:46:20.194Z,97.90
2023-02-08T14:51:28.825Z,99.00
2023-02-08T14:56:38.674Z,99.90
2023-02-08T15:01:46.966Z,99.90
2023-02-08T15:07:06.894Z,99.90
2023-02-08T15:12:15.821Z,99.90
2023-02-08T15:17:24.420Z,99.90
2023-02-08T15:22:34.476Z,99.90
2023-02-08T15:27:41.310Z,99.90
2023-02-08T15:32:46.784Z,99.90
2023-02-08T15:37:53.339Z,99.90
2023-02-08T15:43:06.554Z,99.90
2023-02-08T15:48:13.691Z,99.90
2023-02-08T15:53:19.896Z,99.90
2023-02-08T15:58:33.921Z,99.90
2023-02-08T16:03:39.444Z,99.90
2023-02-08T16:08:45.073Z,99.90
2023-02-08T16:13:53.524Z,99.90
2023-02-08T16:19:07.206Z,99.90
2023-02-08T16:24:15.576Z,99.90
2023-02-08T16:29:32.953Z,99.90
2023-02-08T16:34:40.806Z,99.90
2023-02-08T16:39:57.779Z,99.90
2023-02-08T16:45:18.049Z,99.90
2023-02-08T16:50:32.458Z,99.90
2023-02-08T16:55:38.769Z,99.90
2023-02-08T17:00:45.632Z,99.90
2023-02-08T17:05:51.322Z,99.90
2023-02-08T17:10:58.264Z,99.90
2023-02-08T17:16:04.413Z,99.90
2023-02-08T17:21:10.723Z,99.90
2023-02-08T17:26:22.604Z,99.90
2023-02-08T17:31:30.925Z,99.90
2023-02-08T17:36:37.663Z,99.90
2023-02-08T17:41:43.232Z,99.90
2023-02-08T17:46:50.414Z,99.90
2023-02-08T17:51:57.824Z,99.90
2023-02-08T17:57:03.348Z,99.90
2023-02-08T18:02:08.713Z,99.90
2023-02-08T18:07:14.113Z,99.90
2023-02-08T18:12:20.847Z,99.90
2023-02-08T18:17:26.250Z,99.90
2023-02-08T18:22:31.625Z,99.90
2023-02-08T18:27:37.253Z,99.90
2023-02-08T18:32:42.713Z,99.90
2023-02-08T18:37:49.682Z,99.90
2023-02-08T18:42:55.113Z,99.90
2023-02-08T18:48:01.190Z,99.90
2023-02-08T18:53:06.576Z,99.90
2023-02-08T18:58:12.071Z,99.90
2023-02-08T19:03:18.977Z,99.90
2023-02-08T19:08:25.049Z,99.90
2023-02-08T19:13:30.797Z,99.90
2023-02-08T19:18:36.141Z,99.90
2023-02-08T19:23:41.874Z,99.90
2023-02-08T19:28:47.414Z,99.90
2023-02-08T19:33:56.265Z,99.90
2023-02-08T19:39:02.724Z,99.90
2023-02-08T19:44:09.733Z,99.90
2023-02-08T19:49:15.521Z,99.90
2023-02-08T19:54:21.576Z,99.90
2023-02-08T19:59:34.190Z,99.90
2023-02-08T20:04:39.212Z,99.90
2023-02-08T20:09:44.563Z,99.90
2023-02-08T20:14:49.884Z,99.90
2023-02-08T20:19:55.541Z,99.90
2023-02-08T20:25:00.787Z,99.90
2023-02-08T20:30:06.690Z,99.90
2023-02-08T20:35:14.124Z,99.90
2023-02-08T20:40:19.517Z,99.90
2023-02-08T20:45:25.190Z,99.90
2023-02-08T20:50:32.761Z,99.90
2023-02-08T20:55:41.230Z,99.90
2023-02-08T21:00:46.757Z,99.90
2023-02-08T21:05:52.201Z,99.90
2023-02-08T21:10:57.637Z,99.90
2023-02-08T21:16:09.026Z,99.90
2023-02-08T21:21:15.802Z,99.90
2023-02-08T21:26:22.154Z,99.90
2023-02-08T21:31:28.042Z,99.90
2023-02-08T21:36:34.376Z,99.90
2023-02-08T21:41:40.156Z,99.90
2023-02-08T21:46:45.541Z,99.90
2023-02-08T21:52:09.298Z,99.90
2023-02-08T21:57:23.618Z,99.90
2023-02-08T22:02:30.908Z,99.90
2023-02-08T22:07:51.021Z,99.90
2023-02-08T22:12:57.485Z,99.90
2023-02-08T22:18:04.763Z,99.90
2023-02-08T22:23:10.422Z,99.90
2023-02-08T22:28:15.861Z,99.90
2023-02-08T22:33:21.267Z,99.90
2023-02-08T22:38:26.712Z,99.90
2023-02-08T22:43:31.975Z,99.90
2023-02-08T22:48:37.413Z,99.90
2023-02-08T22:53:43.006Z,99.90
2023-02-08T22:58:48.367Z,99.90
2023-02-08T23:03:54.205Z,99.90
2023-02-08T23:08:59.927Z,99.90
2023-02-08T23:14:05.521Z,99.90
2023-02-08T23:19:16.215Z,99.90
2023-02-08T23:24:21.842Z,99.90
2023-02-08T23:29:27.501Z,99.90
2023-02-08T23:34:34.664Z,99.90
2023-02-08T23:39:40.121Z,99.90
2023-02-08T23:44:45.528Z,99.90
2023-02-08T23:49:51.366Z,99.90
2023-02-08T23:54:56.727Z,99.90
